sensor_id;sensor_type;location;lat;lon;timestamp;temperature;humidity
13464;DHT22;6804;48.774;9.174;2023-04-24T00:01:07;13.70;99.90
13464;DHT22;6804;48.774;9.174;2023-04-24T00:03:41;13.70;99.90
13464;DHT22;6804;48.774;9.174;2023-04-24T00:06:08;13.70;99.90
13464;DHT22;6804;48.774;9.174;2023-04-24T00:08:37;13.70;99.90
13464;DHT22;6804;48.774;9.174;2023-04-24T00:11:10;13.70;99.90
13464;DHT22;6804;48.774;9.174;2023-04-24T00:13:40;13.70;99.90
13464;DHT22;6804;48.774;9.174;2023-04-24T00:16:08;13.70;99.90
13464;DHT22;6804;48.774;9.174;2023-04-24T00:18:35;13.70;99.90
13464;DHT22;6804;48.774;9.174;2023-04-24T00:21:02;13.70;99.90
13464;DHT22;6804;48.774;9.174;2023-04-24T00:23:32;13.70;99.90
13464;DHT22;6804;48.774;9.174;2023-04-24T00:26:04;13.70;99.90
13464;DHT22;6804;48.774;9.174;2023-04-24T00:28:31;13.70;99.90
13464;DHT22;6804;48.774;9.174;2023-04-24T00:31:00;13.70;99.90
13464;DHT22;6804;48.774;9.174;2023-04-24T00:33:28;13.70;99.90
13464;DHT22;6804;48.774;9.174;2023-04-24T00:36:04;13.70;99.90
13464;DHT22;6804;48.774;9.174;2023-04-24T00:38:33;13.70;99.90
13464;DHT22;6804;48.774;9.174;2023-04-24T00:41:00;13.70;99.90
13464;DHT22;6804;48.774;9.174;2023-04-24T00:43:29;13.70;99.90
13464;DHT22;6804;48.774;9.174;2023-04-24T00:45:57;13.70;99.90
13464;DHT22;6804;48.774;9.174;2023-04-24T00:48:30;13.80;99.90
13464;DHT22;6804;48.774;9.174;2023-04-24T00:50:57;13.80;99.90
13464;DHT22;6804;48.774;9.174;2023-04-24T00:53:24;13.80;99.90
13464;DHT22;6804;48.774;9.174;2023-04-24T00:55:51;13.80;99.90
13464;DHT22;6804;48.774;9.174;2023-04-24T00:58:19;13.80;99.90
13464;DHT22;6804;48.774;9.174;2023-04-24T01:00:49;13.80;99.90
13464;DHT22;6804;48.774;9.174;2023-04-24T01:03:19;13.80;99.90
13464;DHT22;6804;48.774;9.174;2023-04-24T01:05:52;13.80;99.90
13464;DHT22;6804;48.774;9.174;2023-04-24T01:08:24;13.90;99.90
13464;DHT22;6804;48.774;9.174;2023-04-24T01:10:54;13.90;99.90
13464;DHT22;6804;48.774;9.174;2023-04-24T01:13:24;13.90;99.90
13464;DHT22;6804;48.774;9.174;2023-04-24T01:15:53;13.90;99.90
13464;DHT22;6804;48.774;9.174;2023-04-24T01:18:20;13.90;99.90
13464;DHT22;6804;48.774;9.174;2023-04-24T01:20:49;13.90;99.90
13464;DHT22;6804;48.774;9.174;2023-04-24T01:23:22;13.90;99.90
13464;DHT22;6804;48.774;9.174;2023-04-24T01:25:51;13.90;99.90
13464;DHT22;6804;48.774;9.174;2023-04-24T01:28:18;13.90;99.90
13464;DHT22;6804;48.774;9.174;2023-04-24T01:30:48;14.00;99.90
13464;DHT22;6804;48.774;9.174;2023-04-24T01:33:25;14.00;99.90
13464;DHT22;6804;48.774;9.174;2023-04-24T01:35:55;14.00;99.90
13464;DHT22;6804;48.774;9.174;2023-04-24T01:38:24;13.90;99.90
13464;DHT22;6804;48.774;9.174;2023-04-24T01:40:54;14.00;99.90
13464;DHT22;6804;48.774;9.174;2023-04-24T01:43:22;13.90;99.90
13464;DHT22;6804;48.774;9.174;2023-04-24T01:45:53;13.90;99.90
13464;DHT22;6804;48.774;9.174;2023-04-24T01:48:20;13.90;99.90
13464;DHT22;6804;48.774;9.174;2023-04-24T01:50:48;13.90;99.90
13464;DHT22;6804;48.774;9.174;2023-04-24T01:53:15;13.90;99.90
13464;DHT22;6804;48.774;9.174;2023-04-24T01:55:44;13.90;99.90
13464;DHT22;6804;48.774;9.174;2023-04-24T01:58:11;13.90;99.90
13464;DHT22;6804;48.774;9.174;2023-04-24T02:00:38;13.90;99.90
13464;DHT22;6804;48.774;9.174;2023-04-24T02:03:05;13.90;99.90
13464;DHT22;6804;48.774;9.174;2023-04-24T02:05:33;13.90;99.90
13464;DHT22;6804;48.774;9.174;2023-04-24T02:08:03;13.90;99.90
13464;DHT22;6804;48.774;9.174;2023-04-24T02:10:30;13.80;99.90
13464;DHT22;6804;48.774;9.174;2023-04-24T02:12:59;13.90;99.90
13464;DHT22;6804;48.774;9.174;2023-04-24T02:15:26;13.90;99.90
13464;DHT22;6804;48.774;9.174;2023-04-24T02:17:53;13.80;99.90
13464;DHT22;6804;48.774;9.174;2023-04-24T02:20:30;13.90;99.90
13464;DHT22;6804;48.774;9.174;2023-04-24T02:22:59;13.90;99.90
13464;DHT22;6804;48.774;9.174;2023-04-24T02:25:29;13.90;99.90
13464;DHT22;6804;48.774;9.174;2023-04-24T02:27:56;13.90;99.90
13464;DHT22;6804;48.774;9.174;2023-04-24T02:30:27;13.90;99.90
13464;DHT22;6804;48.774;9.174;2023-04-24T02:32:54;13.90;99.90
13464;DHT22;6804;48.774;9.174;2023-04-24T02:35:25;13.90;99.90
13464;DHT22;6804;48.774;9.174;2023-04-24T02:37:54;13.80;99.90
13464;DHT22;6804;48.774;9.174;2023-04-24T02:40:21;13.80;99.90
13464;DHT22;6804;48.774;9.174;2023-04-24T02:42:48;13.80;99.90
13464;DHT22;6804;48.774;9.174;2023-04-24T02:45:15;13.80;99.90
13464;DHT22;6804;48.774;9.174;2023-04-24T02:47:47;13.80;99.90
13464;DHT22;6804;48.774;9.174;2023-04-24T02:50:14;13.80;99.90
13464;DHT22;6804;48.774;9.174;2023-04-24T02:52:42;13.70;99.90
13464;DHT22;6804;48.774;9.174;2023-04-24T02:55:09;13.70;99.90
13464;DHT22;6804;48.774;9.174;2023-04-24T02:57:36;13.70;99.90
13464;DHT22;6804;48.774;9.174;2023-04-24T03:00:07;13.70;99.90
13464;DHT22;6804;48.774;9.174;2023-04-24T03:02:35;13.70;99.90
13464;DHT22;6804;48.774;9.174;2023-04-24T03:05:04;13.80;99.90
13464;DHT22;6804;48.774;9.174;2023-04-24T03:07:36;13.70;99.90
13464;DHT22;6804;48.774;9.174;2023-04-24T03:10:04;13.70;99.90
13464;DHT22;6804;48.774;9.174;2023-04-24T03:12:31;13.70;99.90
13464;DHT22;6804;48.774;9.174;2023-04-24T03:15:07;13.70;99.90
13464;DHT22;6804;48.774;9.174;2023-04-24T03:17:37;13.70;99.90
13464;DHT22;6804;48.774;9.174;2023-04-24T03:20:08;13.70;99.90
13464;DHT22;6804;48.774;9.174;2023-04-24T03:22:35;13.60;99.90
13464;DHT22;6804;48.774;9.174;2023-04-24T03:25:06;13.60;99.90
13464;DHT22;6804;48.774;9.174;2023-04-24T03:27:37;13.70;99.90
13464;DHT22;6804;48.774;9.174;2023-04-24T03:30:08;13.70;99.90
13464;DHT22;6804;48.774;9.174;2023-04-24T03:32:36;13.70;99.90
13464;DHT22;6804;48.774;9.174;2023-04-24T03:35:09;13.70;99.90
13464;DHT22;6804;48.774;9.174;2023-04-24T03:37:36;13.70;99.90
13464;DHT22;6804;48.774;9.174;2023-04-24T03:40:08;13.70;99.90
13464;DHT22;6804;48.774;9.174;2023-04-24T03:42:38;13.60;99.90
13464;DHT22;6804;48.774;9.174;2023-04-24T03:45:09;13.60;99.90
13464;DHT22;6804;48.774;9.174;2023-04-24T03:47:36;13.60;99.90
13464;DHT22;6804;48.774;9.174;2023-04-24T03:50:09;13.50;99.90
13464;DHT22;6804;48.774;9.174;2023-04-24T03:52:39;13.50;99.90
13464;DHT22;6804;48.774;9.174;2023-04-24T03:55:07;13.50;99.90
13464;DHT22;6804;48.774;9.174;2023-04-24T03:57:35;13.40;99.90
13464;DHT22;6804;48.774;9.174;2023-04-24T04:00:02;13.40;99.90
13464;DHT22;6804;48.774;9.174;2023-04-24T04:02:30;13.40;99.90
13464;DHT22;6804;48.774;9.174;2023-04-24T04:04:57;13.30;99.90
13464;DHT22;6804;48.774;9.174;2023-04-24T04:07:28;13.30;99.90
13464;DHT22;6804;48.774;9.174;2023-04-24T04:09:58;13.30;99.90
13464;DHT22;6804;48.774;9.174;2023-04-24T04:12:28;13.30;99.90
13464;DHT22;6804;48.774;9.174;2023-04-24T04:14:58;13.30;99.90
13464;DHT22;6804;48.774;9.174;2023-04-24T04:17:28;13.30;99.90
13464;DHT22;6804;48.774;9.174;2023-04-24T04:19:58;13.30;99.90
13464;DHT22;6804;48.774;9.174;2023-04-24T04:22:27;13.30;99.90
13464;DHT22;6804;48.774;9.174;2023-04-24T04:24:54;13.30;99.90
13464;DHT22;6804;48.774;9.174;2023-04-24T04:27:22;13.30;99.90
13464;DHT22;6804;48.774;9.174;2023-04-24T04:29:49;13.30;99.90
13464;DHT22;6804;48.774;9.174;2023-04-24T04:32:17;13.30;99.90
13464;DHT22;6804;48.774;9.174;2023-04-24T04:34:44;13.20;99.90
13464;DHT22;6804;48.774;9.174;2023-04-24T04:37:12;13.10;99.90
13464;DHT22;6804;48.774;9.174;2023-04-24T04:39:41;13.10;99.90
13464;DHT22;6804;48.774;9.174;2023-04-24T04:42:08;13.00;99.90
13464;DHT22;6804;48.774;9.174;2023-04-24T04:44:36;13.10;99.90
13464;DHT22;6804;48.774;9.174;2023-04-24T04:47:04;13.00;99.90
13464;DHT22;6804;48.774;9.174;2023-04-24T04:49:34;12.90;99.90
13464;DHT22;6804;48.774;9.174;2023-04-24T04:52:11;12.80;99.90
13464;DHT22;6804;48.774;9.174;2023-04-24T04:54:42;12.80;99.90
13464;DHT22;6804;48.774;9.174;2023-04-24T04:57:10;12.80;99.90
13464;DHT22;6804;48.774;9.174;2023-04-24T04:59:38;12.80;99.90
13464;DHT22;6804;48.774;9.174;2023-04-24T05:02:07;12.80;99.90
13464;DHT22;6804;48.774;9.174;2023-04-24T05:04:37;12.70;99.90
13464;DHT22;6804;48.774;9.174;2023-04-24T05:07:09;12.70;99.90
13464;DHT22;6804;48.774;9.174;2023-04-24T05:09:36;12.70;99.90
13464;DHT22;6804;48.774;9.174;2023-04-24T05:12:08;12.70;99.90
13464;DHT22;6804;48.774;9.174;2023-04-24T05:14:39;12.70;99.90
13464;DHT22;6804;48.774;9.174;2023-04-24T05:17:09;12.70;99.90
13464;DHT22;6804;48.774;9.174;2023-04-24T05:19:39;12.70;99.90
13464;DHT22;6804;48.774;9.174;2023-04-24T05:22:06;12.70;99.90
13464;DHT22;6804;48.774;9.174;2023-04-24T05:24:35;12.70;99.90
13464;DHT22;6804;48.774;9.174;2023-04-24T05:27:07;12.70;99.90
13464;DHT22;6804;48.774;9.174;2023-04-24T05:29:37;12.70;99.90
13464;DHT22;6804;48.774;9.174;2023-04-24T05:32:05;12.70;99.90
13464;DHT22;6804;48.774;9.174;2023-04-24T05:34:32;12.70;99.90
13464;DHT22;6804;48.774;9.174;2023-04-24T05:37:00;12.80;99.90
13464;DHT22;6804;48.774;9.174;2023-04-24T05:39:29;12.80;99.90
13464;DHT22;6804;48.774;9.174;2023-04-24T05:42:02;12.80;99.90
13464;DHT22;6804;48.774;9.174;2023-04-24T05:44:32;12.90;99.90
13464;DHT22;6804;48.774;9.174;2023-04-24T05:46:59;12.90;99.90
13464;DHT22;6804;48.774;9.174;2023-04-24T05:49:32;12.90;99.90
13464;DHT22;6804;48.774;9.174;2023-04-24T05:52:01;12.90;99.90
13464;DHT22;6804;48.774;9.174;2023-04-24T05:54:33;13.00;99.90
13464;DHT22;6804;48.774;9.174;2023-04-24T05:57:00;13.00;99.90
13464;DHT22;6804;48.774;9.174;2023-04-24T05:59:36;12.90;99.90
13464;DHT22;6804;48.774;9.174;2023-04-24T06:02:06;12.90;99.90
13464;DHT22;6804;48.774;9.174;2023-04-24T06:04:36;13.00;99.90
13464;DHT22;6804;48.774;9.174;2023-04-24T06:07:03;13.00;99.90
13464;DHT22;6804;48.774;9.174;2023-04-24T06:09:31;12.90;99.90
13464;DHT22;6804;48.774;9.174;2023-04-24T06:12:00;12.90;99.90
13464;DHT22;6804;48.774;9.174;2023-04-24T06:14:28;13.00;99.90
13464;DHT22;6804;48.774;9.174;2023-04-24T06:17:03;12.90;99.90
13464;DHT22;6804;48.774;9.174;2023-04-24T06:19:31;13.00;99.90
13464;DHT22;6804;48.774;9.174;2023-04-24T06:21:59;13.00;99.90
13464;DHT22;6804;48.774;9.174;2023-04-24T06:24:27;13.10;99.90
13464;DHT22;6804;48.774;9.174;2023-04-24T06:26:55;13.20;99.90
13464;DHT22;6804;48.774;9.174;2023-04-24T06:29:24;13.50;99.90
13464;DHT22;6804;48.774;9.174;2023-04-24T06:31:52;13.80;99.90
13464;DHT22;6804;48.774;9.174;2023-04-24T06:34:24;14.10;99.90
13464;DHT22;6804;48.774;9.174;2023-04-24T06:36:52;14.40;99.90
13464;DHT22;6804;48.774;9.174;2023-04-24T06:39:25;14.70;99.90
13464;DHT22;6804;48.774;9.174;2023-04-24T06:41:53;15.00;99.90
13464;DHT22;6804;48.774;9.174;2023-04-24T06:44:21;15.30;99.90
13464;DHT22;6804;48.774;9.174;2023-04-24T06:46:50;15.60;99.90
13464;DHT22;6804;48.774;9.174;2023-04-24T06:49:31;15.80;99.90
13464;DHT22;6804;48.774;9.174;2023-04-24T06:52:01;15.90;99.90
13464;DHT22;6804;48.774;9.174;2023-04-24T06:54:30;16.10;99.90
13464;DHT22;6804;48.774;9.174;2023-04-24T06:56:58;16.40;99.90
13464;DHT22;6804;48.774;9.174;2023-04-24T06:59:26;16.60;99.90
13464;DHT22;6804;48.774;9.174;2023-04-24T07:01:54;16.70;99.90
13464;DHT22;6804;48.774;9.174;2023-04-24T07:04:22;16.60;99.90
13464;DHT22;6804;48.774;9.174;2023-04-24T07:06:55;16.40;99.90
13464;DHT22;6804;48.774;9.174;2023-04-24T07:09:24;16.30;99.90
13464;DHT22;6804;48.774;9.174;2023-04-24T07:11:53;16.10;99.90
13464;DHT22;6804;48.774;9.174;2023-04-24T07:14:23;15.80;99.90
13464;DHT22;6804;48.774;9.174;2023-04-24T07:16:53;15.60;99.90
13464;DHT22;6804;48.774;9.174;2023-04-24T07:19:23;15.50;99.90
13464;DHT22;6804;48.774;9.174;2023-04-24T07:21:55;15.40;99.90
13464;DHT22;6804;48.774;9.174;2023-04-24T07:24:24;15.20;99.90
13464;DHT22;6804;48.774;9.174;2023-04-24T07:26:54;15.10;99.90
13464;DHT22;6804;48.774;9.174;2023-04-24T07:29:23;15.00;99.90
13464;DHT22;6804;48.774;9.174;2023-04-24T07:31:54;14.80;99.90
13464;DHT22;6804;48.774;9.174;2023-04-24T07:34:22;14.70;99.90
13464;DHT22;6804;48.774;9.174;2023-04-24T07:36:50;14.70;99.90
13464;DHT22;6804;48.774;9.174;2023-04-24T07:39:23;14.70;99.90
13464;DHT22;6804;48.774;9.174;2023-04-24T07:41:52;14.80;99.90
13464;DHT22;6804;48.774;9.174;2023-04-24T07:44:20;15.00;99.90
13464;DHT22;6804;48.774;9.174;2023-04-24T07:46:48;15.40;99.90
13464;DHT22;6804;48.774;9.174;2023-04-24T07:49:16;15.60;99.90
13464;DHT22;6804;48.774;9.174;2023-04-24T07:51:44;15.70;99.90
13464;DHT22;6804;48.774;9.174;2023-04-24T07:54:14;15.80;99.90
13464;DHT22;6804;48.774;9.174;2023-04-24T07:56:47;15.80;99.90
13464;DHT22;6804;48.774;9.174;2023-04-24T07:59:15;15.80;99.90
13464;DHT22;6804;48.774;9.174;2023-04-24T08:01:43;15.70;99.90
13464;DHT22;6804;48.774;9.174;2023-04-24T08:04:14;15.50;99.90
13464;DHT22;6804;48.774;9.174;2023-04-24T08:06:42;15.20;99.90
13464;DHT22;6804;48.774;9.174;2023-04-24T08:09:09;15.10;99.90
13464;DHT22;6804;48.774;9.174;2023-04-24T08:11:39;14.80;99.90
13464;DHT22;6804;48.774;9.174;2023-04-24T08:14:08;14.60;99.90
13464;DHT22;6804;48.774;9.174;2023-04-24T08:16:38;14.40;99.90
13464;DHT22;6804;48.774;9.174;2023-04-24T08:19:05;14.30;99.90
13464;DHT22;6804;48.774;9.174;2023-04-24T08:21:38;14.30;99.90
13464;DHT22;6804;48.774;9.174;2023-04-24T08:24:06;14.40;99.90
13464;DHT22;6804;48.774;9.174;2023-04-24T08:26:35;14.50;99.90
13464;DHT22;6804;48.774;9.174;2023-04-24T08:29:05;14.50;99.90
13464;DHT22;6804;48.774;9.174;2023-04-24T08:31:37;14.50;99.90
13464;DHT22;6804;48.774;9.174;2023-04-24T08:34:05;14.50;99.90
13464;DHT22;6804;48.774;9.174;2023-04-24T08:36:33;14.50;99.90
13464;DHT22;6804;48.774;9.174;2023-04-24T08:39:01;14.60;99.90
13464;DHT22;6804;48.774;9.174;2023-04-24T08:41:30;14.60;99.90
13464;DHT22;6804;48.774;9.174;2023-04-24T08:44:02;14.60;99.90
13464;DHT22;6804;48.774;9.174;2023-04-24T08:46:30;14.40;99.90
13464;DHT22;6804;48.774;9.174;2023-04-24T08:48:59;14.30;99.90
13464;DHT22;6804;48.774;9.174;2023-04-24T08:51:28;14.20;99.90
13464;DHT22;6804;48.774;9.174;2023-04-24T08:53:57;14.10;99.90
13464;DHT22;6804;48.774;9.174;2023-04-24T08:56:28;13.90;99.90
13464;DHT22;6804;48.774;9.174;2023-04-24T08:58:57;13.90;99.90
13464;DHT22;6804;48.774;9.174;2023-04-24T09:01:25;14.00;99.90
13464;DHT22;6804;48.774;9.174;2023-04-24T09:03:55;14.10;99.90
13464;DHT22;6804;48.774;9.174;2023-04-24T09:06:28;14.10;99.90
13464;DHT22;6804;48.774;9.174;2023-04-24T09:09:00;14.20;99.90
13464;DHT22;6804;48.774;9.174;2023-04-24T09:11:30;14.10;99.90
13464;DHT22;6804;48.774;9.174;2023-04-24T09:13:58;14.00;99.90
13464;DHT22;6804;48.774;9.174;2023-04-24T09:16:29;13.80;99.90
13464;DHT22;6804;48.774;9.174;2023-04-24T09:18:59;13.60;99.90
13464;DHT22;6804;48.774;9.174;2023-04-24T09:21:32;13.50;99.90
13464;DHT22;6804;48.774;9.174;2023-04-24T09:24:00;13.50;99.90
13464;DHT22;6804;48.774;9.174;2023-04-24T09:26:30;13.40;99.90
13464;DHT22;6804;48.774;9.174;2023-04-24T09:28:59;13.20;99.90
13464;DHT22;6804;48.774;9.174;2023-04-24T09:31:27;13.00;99.90
13464;DHT22;6804;48.774;9.174;2023-04-24T09:33:59;13.00;99.90
13464;DHT22;6804;48.774;9.174;2023-04-24T09:36:30;13.00;99.90
13464;DHT22;6804;48.774;9.174;2023-04-24T09:39:00;13.10;99.90
13464;DHT22;6804;48.774;9.174;2023-04-24T09:41:28;13.10;99.90
13464;DHT22;6804;48.774;9.174;2023-04-24T09:43:56;13.20;99.90
13464;DHT22;6804;48.774;9.174;2023-04-24T09:46:30;13.40;99.90
13464;DHT22;6804;48.774;9.174;2023-04-24T09:49:08;13.50;99.90
13464;DHT22;6804;48.774;9.174;2023-04-24T09:51:38;13.60;99.90
13464;DHT22;6804;48.774;9.174;2023-04-24T09:54:14;13.70;99.90
13464;DHT22;6804;48.774;9.174;2023-04-24T09:56:43;13.70;99.90
13464;DHT22;6804;48.774;9.174;2023-04-24T09:59:18;13.70;99.90
13464;DHT22;6804;48.774;9.174;2023-04-24T10:01:47;13.70;99.90
13464;DHT22;6804;48.774;9.174;2023-04-24T10:04:18;13.70;99.90
13464;DHT22;6804;48.774;9.174;2023-04-24T10:06:52;13.60;99.90
13464;DHT22;6804;48.774;9.174;2023-04-24T10:09:21;13.70;99.90
13464;DHT22;6804;48.774;9.174;2023-04-24T10:11:51;13.70;99.90
13464;DHT22;6804;48.774;9.174;2023-04-24T10:14:21;13.80;99.90
13464;DHT22;6804;48.774;9.174;2023-04-24T10:16:49;13.80;99.90
13464;DHT22;6804;48.774;9.174;2023-04-24T10:19:17;13.90;99.90
13464;DHT22;6804;48.774;9.174;2023-04-24T10:21:49;14.10;99.50
13464;DHT22;6804;48.774;9.174;2023-04-24T10:24:19;14.30;98.60
13464;DHT22;6804;48.774;9.174;2023-04-24T10:26:48;14.50;98.10
13464;DHT22;6804;48.774;9.174;2023-04-24T10:29:19;14.70;97.40
13464;DHT22;6804;48.774;9.174;2023-04-24T10:31:48;14.80;96.60
13464;DHT22;6804;48.774;9.174;2023-04-24T10:34:21;15.10;96.70
13464;DHT22;6804;48.774;9.174;2023-04-24T10:36:54;15.20;96.00
13464;DHT22;6804;48.774;9.174;2023-04-24T10:39:22;15.10;95.80
13464;DHT22;6804;48.774;9.174;2023-04-24T10:41:50;15.00;95.80
13464;DHT22;6804;48.774;9.174;2023-04-24T10:44:18;14.90;96.00
13464;DHT22;6804;48.774;9.174;2023-04-24T10:46:53;14.90;96.30
13464;DHT22;6804;48.774;9.174;2023-04-24T10:49:29;14.70;96.40
13464;DHT22;6804;48.774;9.174;2023-04-24T10:52:03;14.60;96.70
13464;DHT22;6804;48.774;9.174;2023-04-24T10:54:35;14.60;97.10
13464;DHT22;6804;48.774;9.174;2023-04-24T10:57:39;14.60;97.30
13464;DHT22;6804;48.774;9.174;2023-04-24T11:00:19;14.40;97.30
13464;DHT22;6804;48.774;9.174;2023-04-24T11:02:48;14.40;97.50
13464;DHT22;6804;48.774;9.174;2023-04-24T11:05:21;14.40;97.70
13464;DHT22;6804;48.774;9.174;2023-04-24T11:08:12;14.50;97.70
13464;DHT22;6804;48.774;9.174;2023-04-24T11:10:44;14.50;97.60
13464;DHT22;6804;48.774;9.174;2023-04-24T11:13:22;14.50;97.80
13464;DHT22;6804;48.774;9.174;2023-04-24T11:16:20;14.50;97.70
13464;DHT22;6804;48.774;9.174;2023-04-24T11:18:52;14.50;97.60
13464;DHT22;6804;48.774;9.174;2023-04-24T11:21:31;14.40;97.00
13464;DHT22;6804;48.774;9.174;2023-04-24T11:24:28;14.30;97.50
13464;DHT22;6804;48.774;9.174;2023-04-24T11:27:11;14.30;97.50
13464;DHT22;6804;48.774;9.174;2023-04-24T11:29:46;14.40;97.40
13464;DHT22;6804;48.774;9.174;2023-04-24T11:32:25;14.30;97.20
13464;DHT22;6804;48.774;9.174;2023-04-24T11:34:54;14.50;98.10
13464;DHT22;6804;48.774;9.174;2023-04-24T11:37:23;14.80;97.30
13464;DHT22;6804;48.774;9.174;2023-04-24T11:39:54;15.10;96.70
13464;DHT22;6804;48.774;9.174;2023-04-24T11:42:22;15.30;96.10
13464;DHT22;6804;48.774;9.174;2023-04-24T11:44:53;15.30;96.10
13464;DHT22;6804;48.774;9.174;2023-04-24T11:47:28;15.20;96.40
13464;DHT22;6804;48.774;9.174;2023-04-24T11:49:57;15.20;96.50
13464;DHT22;6804;48.774;9.174;2023-04-24T11:52:37;15.10;96.00
13464;DHT22;6804;48.774;9.174;2023-04-24T11:55:23;14.90;96.40
13464;DHT22;6804;48.774;9.174;2023-04-24T11:57:54;14.80;96.80
13464;DHT22;6804;48.774;9.174;2023-04-24T12:00:25;14.60;98.40
13464;DHT22;6804;48.774;9.174;2023-04-24T12:03:04;14.50;98.20
13464;DHT22;6804;48.774;9.174;2023-04-24T12:05:33;14.40;98.70
13464;DHT22;6804;48.774;9.174;2023-04-24T12:08:01;14.50;98.60
13464;DHT22;6804;48.774;9.174;2023-04-24T12:10:32;14.60;98.60
13464;DHT22;6804;48.774;9.174;2023-04-24T12:13:00;14.80;98.10
13464;DHT22;6804;48.774;9.174;2023-04-24T12:15:29;14.90;97.60
13464;DHT22;6804;48.774;9.174;2023-04-24T12:17:58;15.00;97.30
13464;DHT22;6804;48.774;9.174;2023-04-24T12:20:27;15.00;97.30
13464;DHT22;6804;48.774;9.174;2023-04-24T12:23:04;15.10;97.10
13464;DHT22;6804;48.774;9.174;2023-04-24T12:25:34;15.00;96.90
13464;DHT22;6804;48.774;9.174;2023-04-24T12:28:14;14.90;96.50
13464;DHT22;6804;48.774;9.174;2023-04-24T12:30:43;14.80;96.60
13464;DHT22;6804;48.774;9.174;2023-04-24T12:33:12;14.60;96.70
13464;DHT22;6804;48.774;9.174;2023-04-24T12:35:41;14.50;96.50
13464;DHT22;6804;48.774;9.174;2023-04-24T12:38:12;14.50;96.30
13464;DHT22;6804;48.774;9.174;2023-04-24T12:40:43;14.50;96.30
13464;DHT22;6804;48.774;9.174;2023-04-24T12:43:16;14.40;96.40
13464;DHT22;6804;48.774;9.174;2023-04-24T12:45:44;14.50;96.80
13464;DHT22;6804;48.774;9.174;2023-04-24T12:48:14;14.50;96.30
13464;DHT22;6804;48.774;9.174;2023-04-24T12:50:45;14.60;96.60
13464;DHT22;6804;48.774;9.174;2023-04-24T12:53:14;14.50;96.10
13464;DHT22;6804;48.774;9.174;2023-04-24T12:55:44;14.50;96.30
13464;DHT22;6804;48.774;9.174;2023-04-24T12:58:18;14.40;96.30
13464;DHT22;6804;48.774;9.174;2023-04-24T13:00:47;14.30;96.30
13464;DHT22;6804;48.774;9.174;2023-04-24T13:03:15;14.30;96.60
13464;DHT22;6804;48.774;9.174;2023-04-24T13:05:44;14.30;97.60
13464;DHT22;6804;48.774;9.174;2023-04-24T13:08:12;14.20;98.00
13464;DHT22;6804;48.774;9.174;2023-04-24T13:10:40;14.20;98.50
13464;DHT22;6804;48.774;9.174;2023-04-24T13:13:10;14.10;99.90
13464;DHT22;6804;48.774;9.174;2023-04-24T13:15:38;14.10;99.90
13464;DHT22;6804;48.774;9.174;2023-04-24T13:18:06;14.10;99.90
13464;DHT22;6804;48.774;9.174;2023-04-24T13:20:34;14.20;99.90
13464;DHT22;6804;48.774;9.174;2023-04-24T13:23:03;14.20;99.90
13464;DHT22;6804;48.774;9.174;2023-04-24T13:25:35;14.40;99.90
13464;DHT22;6804;48.774;9.174;2023-04-24T13:28:05;14.40;99.90
13464;DHT22;6804;48.774;9.174;2023-04-24T13:30:34;14.50;99.90
13464;DHT22;6804;48.774;9.174;2023-04-24T13:33:03;14.60;99.90
13464;DHT22;6804;48.774;9.174;2023-04-24T13:35:32;14.60;99.90
13464;DHT22;6804;48.774;9.174;2023-04-24T13:38:02;14.70;99.90
13464;DHT22;6804;48.774;9.174;2023-04-24T13:40:35;14.70;99.90
13464;DHT22;6804;48.774;9.174;2023-04-24T13:43:06;14.70;99.90
13464;DHT22;6804;48.774;9.174;2023-04-24T13:45:36;14.50;99.90
13464;DHT22;6804;48.774;9.174;2023-04-24T13:48:04;14.40;99.90
13464;DHT22;6804;48.774;9.174;2023-04-24T13:50:34;14.30;99.90
13464;DHT22;6804;48.774;9.174;2023-04-24T13:53:07;14.10;99.90
13464;DHT22;6804;48.774;9.174;2023-04-24T13:55:35;13.90;99.90
13464;DHT22;6804;48.774;9.174;2023-04-24T13:58:05;13.60;99.90
13464;DHT22;6804;48.774;9.174;2023-04-24T14:00:34;13.40;99.90
13464;DHT22;6804;48.774;9.174;2023-04-24T14:03:04;13.30;99.90
13464;DHT22;6804;48.774;9.174;2023-04-24T14:05:34;13.30;99.90
13464;DHT22;6804;48.774;9.174;2023-04-24T14:08:05;13.40;99.90
13464;DHT22;6804;48.774;9.174;2023-04-24T14:10:36;13.60;99.90
13464;DHT22;6804;48.774;9.174;2023-04-24T14:13:07;13.80;99.90
13464;DHT22;6804;48.774;9.174;2023-04-24T14:15:36;13.90;99.90
13464;DHT22;6804;48.774;9.174;2023-04-24T14:18:08;13.90;99.90
13464;DHT22;6804;48.774;9.174;2023-04-24T14:20:36;14.00;99.90
13464;DHT22;6804;48.774;9.174;2023-04-24T14:23:05;14.20;99.90
13464;DHT22;6804;48.774;9.174;2023-04-24T14:25:36;14.30;99.90
13464;DHT22;6804;48.774;9.174;2023-04-24T14:28:07;14.40;99.90
13464;DHT22;6804;48.774;9.174;2023-04-24T14:30:36;14.50;99.90
13464;DHT22;6804;48.774;9.174;2023-04-24T14:33:08;14.50;99.90
13464;DHT22;6804;48.774;9.174;2023-04-24T14:35:36;14.70;99.90
13464;DHT22;6804;48.774;9.174;2023-04-24T14:38:07;14.70;99.90
13464;DHT22;6804;48.774;9.174;2023-04-24T14:40:35;14.80;99.90
13464;DHT22;6804;48.774;9.174;2023-04-24T14:43:06;14.70;99.90
13464;DHT22;6804;48.774;9.174;2023-04-24T14:45:34;14.80;99.90
13464;DHT22;6804;48.774;9.174;2023-04-24T14:48:06;14.80;99.90
13464;DHT22;6804;48.774;9.174;2023-04-24T14:50:39;14.80;99.90
13464;DHT22;6804;48.774;9.174;2023-04-24T14:53:07;14.70;99.90
13464;DHT22;6804;48.774;9.174;2023-04-24T14:55:35;14.70;99.90
13464;DHT22;6804;48.774;9.174;2023-04-24T14:58:07;14.40;99.90
13464;DHT22;6804;48.774;9.174;2023-04-24T15:00:35;14.40;99.90
13464;DHT22;6804;48.774;9.174;2023-04-24T15:03:06;14.40;99.90
13464;DHT22;6804;48.774;9.174;2023-04-24T15:05:35;14.50;99.90
13464;DHT22;6804;48.774;9.174;2023-04-24T15:08:10;14.60;99.90
13464;DHT22;6804;48.774;9.174;2023-04-24T15:10:38;14.70;99.90
13464;DHT22;6804;48.774;9.174;2023-04-24T15:13:06;14.60;99.90
13464;DHT22;6804;48.774;9.174;2023-04-24T15:15:37;14.50;99.90
13464;DHT22;6804;48.774;9.174;2023-04-24T15:18:09;14.50;99.90
13464;DHT22;6804;48.774;9.174;2023-04-24T15:20:38;14.40;99.90
13464;DHT22;6804;48.774;9.174;2023-04-24T15:23:09;14.30;99.90
13464;DHT22;6804;48.774;9.174;2023-04-24T15:25:37;14.30;99.90
13464;DHT22;6804;48.774;9.174;2023-04-24T15:28:08;14.30;99.90
13464;DHT22;6804;48.774;9.174;2023-04-24T15:30:40;14.20;99.90
13464;DHT22;6804;48.774;9.174;2023-04-24T15:33:08;14.20;99.90
13464;DHT22;6804;48.774;9.174;2023-04-24T15:35:38;14.20;99.90
13464;DHT22;6804;48.774;9.174;2023-04-24T15:38:09;14.20;99.90
13464;DHT22;6804;48.774;9.174;2023-04-24T15:40:37;14.20;99.90
13464;DHT22;6804;48.774;9.174;2023-04-24T15:43:08;14.10;99.90
13464;DHT22;6804;48.774;9.174;2023-04-24T15:45:39;14.00;99.90
13464;DHT22;6804;48.774;9.174;2023-04-24T15:48:10;13.90;99.90
13464;DHT22;6804;48.774;9.174;2023-04-24T15:50:41;13.80;99.90
13464;DHT22;6804;48.774;9.174;2023-04-24T15:53:10;13.80;99.90
13464;DHT22;6804;48.774;9.174;2023-04-24T15:55:38;13.80;99.90
13464;DHT22;6804;48.774;9.174;2023-04-24T15:58:06;13.80;99.90
13464;DHT22;6804;48.774;9.174;2023-04-24T16:00:37;13.80;99.90
13464;DHT22;6804;48.774;9.174;2023-04-24T16:03:06;13.80;99.90